Eagle — WBP2187 — position and weather

sailwx.info

Track history (hours):
 
Tides and Currents Weather Stations Pressure Air Temp Water Temp Dewpoint Dewpoint Depression Visibility Wind Speed Wind Dir Waves Ship Positions

Eagle

Owner: Harley Marine Services, INC, SEATTLE, WA. More information available from US FCC via Universal Licensing System and Coast Guard Vessel Documentation Center.

Last reported at 2015-Aug-30 19:33 UTC. Time now 2015-Sep-02 00:27 UTC.
Position N 38°30' W 123°37'.

Length 32 m; draft 4 m.

Type: Tow > 200 m length. MMSI: 366978690.

Date/timePositionNaut miles runAvg speedWind from/ knotsBaromVisibWave heightAir tempDewpointWater temp
2015-Aug-30 19:33N 38°30' W 123°37'7 7.0
2015-Aug-30 18:33N 38°24' W 123°33'7 6.8
2015-Aug-30 17:33N 38°18' W 123°28'7 6.5
2015-Aug-30 16:33N 38°13' W 123°23'7 6.7
2015-Aug-30 15:33N 38°07' W 123°18'7 6.5
2015-Aug-30 14:33N 38°03' W 123°13'6 6.4
2015-Aug-30 13:33N 37°58' W 123°07'7 6.5
2015-Aug-30 12:33N 37°55' W 122°60'7 6.6
2015-Aug-30 11:33N 37°52' W 122°52'7 7.1
2015-Aug-30 10:31N 37°48' W 122°44'6 6.7
2015-Aug-30 09:33N 37°46' W 122°36'8 8.3
2015-Aug-30 08:33N 37°50' W 122°27'5 4.8
2015-Aug-30 07:33N 37°48' W 122°21'3 3.4
2015-Aug-30 06:33N 37°48' W 122°17'0 0.0
2015-Aug-30 05:33N 37°48' W 122°17'0 0.0
2015-Aug-30 04:33N 37°48' W 122°17'0 0.0
2015-Aug-30 03:33N 37°48' W 122°17'0 0.0
2015-Aug-30 02:33N 37°48' W 122°17'0 0.0
2015-Aug-30 01:33N 37°48' W 122°17'0 0.0
2015-Aug-30 00:33N 37°48' W 122°17'0 0.0
2015-Aug-29 23:33N 37°48' W 122°17'0 0.0
2015-Aug-29 22:33N 37°48' W 122°17'0 0.0
2015-Aug-29 21:33N 37°48' W 122°17'0 0.0
2015-Aug-29 20:33N 37°48' W 122°17'0 0.0
2015-Aug-29 19:33N 37°48' W 122°17'0 0.0
2015-Aug-29 18:33N 37°48' W 122°17'0 0.0
2015-Aug-29 17:33N 37°48' W 122°17'0 0.0
2015-Aug-29 16:33N 37°48' W 122°17'0 0.0
2015-Aug-29 15:33N 37°48' W 122°17'0 0.0
2015-Aug-29 14:33N 37°48' W 122°17'0 0.0
2015-Aug-29 13:33N 37°48' W 122°17'0 0.0
2015-Aug-29 12:33N 37°48' W 122°17'0 0.0
2015-Aug-29 11:33N 37°48' W 122°17'0 0.0
2015-Aug-29 10:33N 37°48' W 122°17'0 0.0
2015-Aug-29 09:34N 37°48' W 122°17'0 0.0
2015-Aug-29 08:33N 37°48' W 122°17'0 0.0
2015-Aug-29 07:33N 37°48' W 122°17'0 0.0
2015-Aug-29 06:33N 37°48' W 122°17'0 0.0
2015-Aug-29 05:33N 37°48' W 122°17'0 0.0
2015-Aug-29 04:33N 37°48' W 122°17'0 0.0
2015-Aug-29 03:34N 37°48' W 122°17'0 0.0
2015-Aug-29 02:33N 37°48' W 122°17'0 0.0
2015-Aug-29 01:33N 37°48' W 122°17'0 0.0
2015-Aug-29 00:33N 37°48' W 122°17'0 0.0
2015-Aug-28 23:33N 37°48' W 122°17'0 0.0
2015-Aug-28 22:33N 37°48' W 122°17'0 0.0
2015-Aug-28 21:33N 37°48' W 122°17'0 0.0
2015-Aug-28 20:33N 37°48' W 122°17'0 0.0
2015-Aug-28 19:33N 37°48' W 122°17'0 0.0
2015-Aug-28 18:33N 37°48' W 122°17'0 0.0
2015-Aug-28 17:33N 37°48' W 122°17'0 0.0
2015-Aug-28 16:33N 37°48' W 122°17'0 0.0
2015-Aug-28 15:33N 37°48' W 122°17'0 0.0
2015-Aug-28 14:34N 37°48' W 122°17'0 0.0
2015-Aug-28 13:34N 37°48' W 122°17'0 0.0
2015-Aug-28 12:33N 37°48' W 122°17'0 0.0
2015-Aug-28 11:33N 37°48' W 122°17'0 0.0
2015-Aug-28 10:34N 37°48' W 122°17'0 0.0
2015-Aug-28 09:33N 37°48' W 122°17'0 0.0
2015-Aug-28 08:33N 37°48' W 122°17'0 0.0
2015-Aug-28 07:33N 37°48' W 122°17'0 0.0
2015-Aug-28 06:34N 37°48' W 122°17'0 0.0
2015-Aug-28 05:34N 37°48' W 122°17'0 0.0
2015-Aug-28 04:33N 37°48' W 122°17'0 0.0
2015-Aug-28 03:33N 37°48' W 122°17'0 0.0
2015-Aug-28 02:33N 37°48' W 122°17'0 0.0
2015-Aug-28 01:33N 37°48' W 122°17'0 0.0
2015-Aug-28 00:33N 37°48' W 122°17'0 0.0
2015-Aug-27 23:33N 37°48' W 122°17'4 4.2
2015-Aug-27 22:33N 37°48' W 122°22'8 7.6
2015-Aug-27 21:33N 37°55' W 122°27'7 7.3
2015-Aug-27 20:33N 38°02' W 122°23'6 5.6
2015-Aug-27 19:32N 38°03' W 122°16'0 0.0
2015-Aug-27 17:33N 38°03' W 122°16'0 0.0
2015-Aug-27 16:33N 38°03' W 122°16'0 0.0
2015-Aug-27 15:33N 38°03' W 122°16'0 0.0
2015-Aug-27 14:33N 38°03' W 122°16'0 0.0
2015-Aug-27 13:33N 38°03' W 122°16'0 0.0
2015-Aug-27 12:33N 38°03' W 122°16'0 0.0
2015-Aug-27 11:33N 38°03' W 122°16'0 0.0
2015-Aug-27 10:33N 38°03' W 122°16'0 0.0
2015-Aug-27 09:33N 38°03' W 122°16'0 0.0
2015-Aug-27 08:33N 38°03' W 122°16'0 0.0
2015-Aug-27 07:33N 38°03' W 122°16'0 0.0
2015-Aug-27 06:33N 38°03' W 122°16'0 0.0
2015-Aug-27 05:29N 38°03' W 122°16'0 0.0
2015-Aug-27 04:33N 38°03' W 122°16'0 0.0
2015-Aug-27 03:33N 38°03' W 122°16'0 0.0
2015-Aug-27 02:33N 38°03' W 122°16'0 0.0
2015-Aug-27 01:33N 38°03' W 122°16'0 0.0
2015-Aug-27 00:33N 38°03' W 122°16'0 0.0
2015-Aug-26 23:33N 38°03' W 122°16'0 0.0
2015-Aug-26 22:33N 38°03' W 122°16'0 0.0
2015-Aug-26 21:33N 38°03' W 122°16'0 0.0
2015-Aug-26 15:31N 38°03' W 122°16'0 0.0
2015-Aug-26 06:21N 38°03' W 122°16'0 0.0
2015-Aug-26 05:19N 38°03' W 122°16'0 0.0
2015-Aug-26 04:33N 38°03' W 122°16'0 0.0
2015-Aug-26 03:33N 38°03' W 122°16'0 0.0
2015-Aug-26 02:28N 38°03' W 122°16'0 0.0
2015-Aug-25 19:03N 38°03' W 122°16'0 0.0
2015-Aug-25 18:32N 38°03' W 122°16'0 0.0
2015-Aug-25 17:10N 38°03' W 122°16'0 0.0
2015-Aug-25 16:33N 38°03' W 122°16'0 0.0
2015-Aug-25 13:22N 38°03' W 122°16'0 0.0
2015-Aug-25 12:33N 38°03' W 122°16'0 0.0
2015-Aug-25 11:33N 38°03' W 122°16'0 0.0
2015-Aug-25 10:26N 38°03' W 122°16'0 0.0
2015-Aug-25 09:33N 38°03' W 122°16'0 0.0
2015-Aug-25 08:28N 38°03' W 122°16'0 0.0
2015-Aug-25 07:33N 38°03' W 122°16'0 0.0
2015-Aug-25 06:32N 38°03' W 122°16'0 0.0
2015-Aug-25 05:33N 38°03' W 122°16'0 0.0
2015-Aug-25 04:33N 38°03' W 122°16'0 0.0
2015-Aug-25 03:33N 38°03' W 122°16'0 0.0
2015-Aug-25 02:28N 38°03' W 122°16'0 0.0
2015-Aug-25 01:13N 38°03' W 122°16'0 0.0
2015-Aug-25 00:33N 38°03' W 122°16'1 1.0
2015-Aug-24 23:31N 38°04' W 122°17'5 4.9
2015-Aug-24 22:33N 38°02' W 122°23'7 6.6
2015-Aug-24 21:33N 37°56' W 122°27'6 6.4
2015-Aug-24 20:33N 37°50' W 122°24'5 5.2
2015-Aug-24 19:33N 37°48' W 122°30'6 5.6
2015-Aug-24 18:33N 37°46' W 122°37'6 5.9
2015-Aug-24 17:33N 37°40' W 122°40'6 5.2
2015-Aug-24 16:29N 37°35' W 122°39'6 6.0
2015-Aug-24 15:26N 37°29' W 122°39'6 6.6
2015-Aug-24 14:33N 37°23' W 122°39'7 6.7
2015-Aug-24 13:33N 37°16' W 122°38'7 6.7
2015-Aug-24 12:27N 37°09' W 122°35'14 6.7
2015-Aug-24 10:26N 36°56' W 122°30'127 6.0
2015-Aug-23 13:15N 35°03' W 121°19'35 5.9
2015-Aug-23 07:20N 34°33' W 120°57'18 5.9
2015-Aug-23 04:19N 34°23' W 120°38'5 6.6
2015-Aug-23 03:31N 34°22' W 120°32'7 6.0
2015-Aug-23 02:21N 34°20' W 120°24'114 6.3
2015-Aug-22 08:26N 33°42' W 118°15'2 0.9
2015-Aug-22 06:33N 33°44' W 118°16'0 0.0
2015-Aug-22 04:13N 33°44' W 118°16'1 0.9
2015-Aug-22 03:33N 33°44' W 118°16'2 1.5
2015-Aug-22 02:33N 33°45' W 118°16'0 0.0
2015-Aug-22 01:33N 33°45' W 118°16'0 0.0
2015-Aug-22 00:33N 33°45' W 118°16'0 0.0
2015-Aug-21 23:33N 33°45' W 118°16'0 0.0
2015-Aug-21 22:33N 33°45' W 118°16'0 0.0
2015-Aug-21 21:33N 33°45' W 118°16'0 0.0
2015-Aug-21 20:33N 33°45' W 118°16'0 0.0
2015-Aug-21 19:33N 33°45' W 118°16'0 0.0
2015-Aug-21 18:32N 33°45' W 118°16'0 0.0
2015-Aug-21 17:33N 33°45' W 118°16'0 0.0
2015-Aug-21 16:33N 33°45' W 118°16'0 0.0
2015-Aug-21 14:33N 33°45' W 118°16'0 0.0
2015-Aug-21 13:32N 33°45' W 118°16'0 0.0
2015-Aug-21 12:33N 33°45' W 118°16'0 0.0
2015-Aug-21 11:33N 33°45' W 118°16'0 0.0
2015-Aug-21 10:33N 33°45' W 118°16'0 0.0
2015-Aug-21 09:33N 33°45' W 118°16'0 0.0
2015-Aug-21 08:33N 33°45' W 118°16'0 0.0
2015-Aug-21 07:33N 33°45' W 118°16'0 0.0
2015-Aug-21 06:33N 33°45' W 118°16'0 0.0
2015-Aug-21 05:33N 33°45' W 118°16'0 0.0
2015-Aug-21 04:33N 33°45' W 118°16'0 0.0
2015-Aug-21 03:33N 33°45' W 118°16'0 0.0
2015-Aug-21 02:32N 33°45' W 118°16'0 0.0
2015-Aug-21 01:32N 33°45' W 118°16'0 0.0
2015-Aug-21 00:33N 33°45' W 118°16'0 0.0
2015-Aug-20 23:33N 33°45' W 118°16'0 0.0
2015-Aug-20 22:33N 33°45' W 118°16'0 0.0
2015-Aug-20 21:33N 33°45' W 118°16'0 0.0
2015-Aug-20 20:33N 33°45' W 118°16'0 0.0
2015-Aug-20 19:33N 33°45' W 118°16'  
Track history (hours):
 
Tides and Currents Weather Stations Pressure Air Temp Water Temp Dewpoint Dewpoint Depression Visibility Wind Speed Wind Dir Waves Ship Positions

Eagle

Owner: Harley Marine Services, INC, SEATTLE, WA. More information available from US FCC via Universal Licensing System and Coast Guard Vessel Documentation Center.

Last reported at 2015-Aug-30 19:33 UTC. Time now 2015-Sep-02 00:27 UTC.
Position N 38°30' W 123°37'.

Length 32 m; draft 4 m.

Type: Tow > 200 m length. MMSI: 366978690.

Date/timePositionNaut miles runAvg speedWind from/ knotsBaromVisibWave heightAir tempDewpointWater temp
2015-Aug-30 19:33N 38°30' W 123°37'7 7.0
2015-Aug-30 18:33N 38°24' W 123°33'7 6.8
2015-Aug-30 17:33N 38°18' W 123°28'7 6.5
2015-Aug-30 16:33N 38°13' W 123°23'7 6.7
2015-Aug-30 15:33N 38°07' W 123°18'7 6.5
2015-Aug-30 14:33N 38°03' W 123°13'6 6.4
2015-Aug-30 13:33N 37°58' W 123°07'7 6.5
2015-Aug-30 12:33N 37°55' W 122°60'7 6.6
2015-Aug-30 11:33N 37°52' W 122°52'7 7.1
2015-Aug-30 10:31N 37°48' W 122°44'6 6.7
2015-Aug-30 09:33N 37°46' W 122°36'8 8.3
2015-Aug-30 08:33N 37°50' W 122°27'5 4.8
2015-Aug-30 07:33N 37°48' W 122°21'3 3.4
2015-Aug-30 06:33N 37°48' W 122°17'0 0.0
2015-Aug-30 05:33N 37°48' W 122°17'0 0.0
2015-Aug-30 04:33N 37°48' W 122°17'0 0.0
2015-Aug-30 03:33N 37°48' W 122°17'0 0.0
2015-Aug-30 02:33N 37°48' W 122°17'0 0.0
2015-Aug-30 01:33N 37°48' W 122°17'0 0.0
2015-Aug-30 00:33N 37°48' W 122°17'0 0.0
2015-Aug-29 23:33N 37°48' W 122°17'0 0.0
2015-Aug-29 22:33N 37°48' W 122°17'0 0.0
2015-Aug-29 21:33N 37°48' W 122°17'0 0.0
2015-Aug-29 20:33N 37°48' W 122°17'0 0.0
2015-Aug-29 19:33N 37°48' W 122°17'0 0.0
2015-Aug-29 18:33N 37°48' W 122°17'0 0.0
2015-Aug-29 17:33N 37°48' W 122°17'0 0.0
2015-Aug-29 16:33N 37°48' W 122°17'0 0.0
2015-Aug-29 15:33N 37°48' W 122°17'0 0.0
2015-Aug-29 14:33N 37°48' W 122°17'0 0.0
2015-Aug-29 13:33N 37°48' W 122°17'0 0.0
2015-Aug-29 12:33N 37°48' W 122°17'0 0.0
2015-Aug-29 11:33N 37°48' W 122°17'0 0.0
2015-Aug-29 10:33N 37°48' W 122°17'0 0.0
2015-Aug-29 09:34N 37°48' W 122°17'0 0.0
2015-Aug-29 08:33N 37°48' W 122°17'0 0.0
2015-Aug-29 07:33N 37°48' W 122°17'0 0.0
2015-Aug-29 06:33N 37°48' W 122°17'0 0.0
2015-Aug-29 05:33N 37°48' W 122°17'0 0.0
2015-Aug-29 04:33N 37°48' W 122°17'0 0.0
2015-Aug-29 03:34N 37°48' W 122°17'0 0.0
2015-Aug-29 02:33N 37°48' W 122°17'0 0.0
2015-Aug-29 01:33N 37°48' W 122°17'0 0.0
2015-Aug-29 00:33N 37°48' W 122°17'0 0.0
2015-Aug-28 23:33N 37°48' W 122°17'0 0.0
2015-Aug-28 22:33N 37°48' W 122°17'0 0.0
2015-Aug-28 21:33N 37°48' W 122°17'0 0.0
2015-Aug-28 20:33N 37°48' W 122°17'0 0.0
2015-Aug-28 19:33N 37°48' W 122°17'0 0.0
2015-Aug-28 18:33N 37°48' W 122°17'0 0.0
2015-Aug-28 17:33N 37°48' W 122°17'0 0.0
2015-Aug-28 16:33N 37°48' W 122°17'0 0.0
2015-Aug-28 15:33N 37°48' W 122°17'0 0.0
2015-Aug-28 14:34N 37°48' W 122°17'0 0.0
2015-Aug-28 13:34N 37°48' W 122°17'0 0.0
2015-Aug-28 12:33N 37°48' W 122°17'0 0.0
2015-Aug-28 11:33N 37°48' W 122°17'0 0.0
2015-Aug-28 10:34N 37°48' W 122°17'0 0.0
2015-Aug-28 09:33N 37°48' W 122°17'0 0.0
2015-Aug-28 08:33N 37°48' W 122°17'0 0.0
2015-Aug-28 07:33N 37°48' W 122°17'0 0.0
2015-Aug-28 06:34N 37°48' W 122°17'0 0.0
2015-Aug-28 05:34N 37°48' W 122°17'0 0.0
2015-Aug-28 04:33N 37°48' W 122°17'0 0.0
2015-Aug-28 03:33N 37°48' W 122°17'0 0.0
2015-Aug-28 02:33N 37°48' W 122°17'0 0.0
2015-Aug-28 01:33N 37°48' W 122°17'0 0.0
2015-Aug-28 00:33N 37°48' W 122°17'0 0.0
2015-Aug-27 23:33N 37°48' W 122°17'4 4.2
2015-Aug-27 22:33N 37°48' W 122°22'8 7.6
2015-Aug-27 21:33N 37°55' W 122°27'7 7.3
2015-Aug-27 20:33N 38°02' W 122°23'6 5.6
2015-Aug-27 19:32N 38°03' W 122°16'0 0.0
2015-Aug-27 17:33N 38°03' W 122°16'0 0.0
2015-Aug-27 16:33N 38°03' W 122°16'0 0.0
2015-Aug-27 15:33N 38°03' W 122°16'0 0.0
2015-Aug-27 14:33N 38°03' W 122°16'0 0.0
2015-Aug-27 13:33N 38°03' W 122°16'0 0.0
2015-Aug-27 12:33N 38°03' W 122°16'0 0.0
2015-Aug-27 11:33N 38°03' W 122°16'0 0.0
2015-Aug-27 10:33N 38°03' W 122°16'0 0.0
2015-Aug-27 09:33N 38°03' W 122°16'0 0.0
2015-Aug-27 08:33N 38°03' W 122°16'0 0.0
2015-Aug-27 07:33N 38°03' W 122°16'0 0.0
2015-Aug-27 06:33N 38°03' W 122°16'0 0.0
2015-Aug-27 05:29N 38°03' W 122°16'0 0.0
2015-Aug-27 04:33N 38°03' W 122°16'0 0.0
2015-Aug-27 03:33N 38°03' W 122°16'0 0.0
2015-Aug-27 02:33N 38°03' W 122°16'0 0.0
2015-Aug-27 01:33N 38°03' W 122°16'0 0.0
2015-Aug-27 00:33N 38°03' W 122°16'0 0.0
2015-Aug-26 23:33N 38°03' W 122°16'0 0.0
2015-Aug-26 22:33N 38°03' W 122°16'0 0.0
2015-Aug-26 21:33N 38°03' W 122°16'0 0.0
2015-Aug-26 15:31N 38°03' W 122°16'0 0.0
2015-Aug-26 06:21N 38°03' W 122°16'0 0.0
2015-Aug-26 05:19N 38°03' W 122°16'0 0.0
2015-Aug-26 04:33N 38°03' W 122°16'0 0.0
2015-Aug-26 03:33N 38°03' W 122°16'0 0.0
2015-Aug-26 02:28N 38°03' W 122°16'0 0.0
2015-Aug-25 19:03N 38°03' W 122°16'0 0.0
2015-Aug-25 18:32N 38°03' W 122°16'0 0.0
2015-Aug-25 17:10N 38°03' W 122°16'0 0.0
2015-Aug-25 16:33N 38°03' W 122°16'0 0.0
2015-Aug-25 13:22N 38°03' W 122°16'0 0.0
2015-Aug-25 12:33N 38°03' W 122°16'0 0.0
2015-Aug-25 11:33N 38°03' W 122°16'0 0.0
2015-Aug-25 10:26N 38°03' W 122°16'0 0.0
2015-Aug-25 09:33N 38°03' W 122°16'0 0.0
2015-Aug-25 08:28N 38°03' W 122°16'0 0.0
2015-Aug-25 07:33N 38°03' W 122°16'0 0.0
2015-Aug-25 06:32N 38°03' W 122°16'0 0.0
2015-Aug-25 05:33N 38°03' W 122°16'0 0.0
2015-Aug-25 04:33N 38°03' W 122°16'0 0.0
2015-Aug-25 03:33N 38°03' W 122°16'0 0.0
2015-Aug-25 02:28N 38°03' W 122°16'0 0.0
2015-Aug-25 01:13N 38°03' W 122°16'0 0.0
2015-Aug-25 00:33N 38°03' W 122°16'1 1.0
2015-Aug-24 23:31N 38°04' W 122°17'5 4.9
2015-Aug-24 22:33N 38°02' W 122°23'7 6.6
2015-Aug-24 21:33N 37°56' W 122°27'6 6.4
2015-Aug-24 20:33N 37°50' W 122°24'5 5.2
2015-Aug-24 19:33N 37°48' W 122°30'6 5.6
2015-Aug-24 18:33N 37°46' W 122°37'6 5.9
2015-Aug-24 17:33N 37°40' W 122°40'6 5.2
2015-Aug-24 16:29N 37°35' W 122°39'6 6.0
2015-Aug-24 15:26N 37°29' W 122°39'6 6.6
2015-Aug-24 14:33N 37°23' W 122°39'7 6.7
2015-Aug-24 13:33N 37°16' W 122°38'7 6.7
2015-Aug-24 12:27N 37°09' W 122°35'14 6.7
2015-Aug-24 10:26N 36°56' W 122°30'127 6.0
2015-Aug-23 13:15N 35°03' W 121°19'35 5.9
2015-Aug-23 07:20N 34°33' W 120°57'18 5.9
2015-Aug-23 04:19N 34°23' W 120°38'5 6.6
2015-Aug-23 03:31N 34°22' W 120°32'7 6.0
2015-Aug-23 02:21N 34°20' W 120°24'114 6.3
2015-Aug-22 08:26N 33°42' W 118°15'2 0.9
2015-Aug-22 06:33N 33°44' W 118°16'0 0.0
2015-Aug-22 04:13N 33°44' W 118°16'1 0.9
2015-Aug-22 03:33N 33°44' W 118°16'2 1.5
2015-Aug-22 02:33N 33°45' W 118°16'0 0.0
2015-Aug-22 01:33N 33°45' W 118°16'0 0.0
2015-Aug-22 00:33N 33°45' W 118°16'0 0.0
2015-Aug-21 23:33N 33°45' W 118°16'0 0.0
2015-Aug-21 22:33N 33°45' W 118°16'0 0.0
2015-Aug-21 21:33N 33°45' W 118°16'0 0.0
2015-Aug-21 20:33N 33°45' W 118°16'0 0.0
2015-Aug-21 19:33N 33°45' W 118°16'0 0.0
2015-Aug-21 18:32N 33°45' W 118°16'0 0.0
2015-Aug-21 17:33N 33°45' W 118°16'0 0.0
2015-Aug-21 16:33N 33°45' W 118°16'0 0.0
2015-Aug-21 14:33N 33°45' W 118°16'0 0.0
2015-Aug-21 13:32N 33°45' W 118°16'0 0.0
2015-Aug-21 12:33N 33°45' W 118°16'0 0.0
2015-Aug-21 11:33N 33°45' W 118°16'0 0.0
2015-Aug-21 10:33N 33°45' W 118°16'0 0.0
2015-Aug-21 09:33N 33°45' W 118°16'0 0.0
2015-Aug-21 08:33N 33°45' W 118°16'0 0.0
2015-Aug-21 07:33N 33°45' W 118°16'0 0.0
2015-Aug-21 06:33N 33°45' W 118°16'0 0.0
2015-Aug-21 05:33N 33°45' W 118°16'0 0.0
2015-Aug-21 04:33N 33°45' W 118°16'0 0.0
2015-Aug-21 03:33N 33°45' W 118°16'0 0.0
2015-Aug-21 02:32N 33°45' W 118°16'0 0.0
2015-Aug-21 01:32N 33°45' W 118°16'0 0.0
2015-Aug-21 00:33N 33°45' W 118°16'0 0.0
2015-Aug-20 23:33N 33°45' W 118°16'0 0.0
2015-Aug-20 22:33N 33°45' W 118°16'0 0.0
2015-Aug-20 21:33N 33°45' W 118°16'0 0.0
2015-Aug-20 20:33N 33°45' W 118°16'0 0.0
2015-Aug-20 19:33N 33°45' W 118°16'  

Dump ship's entire track history